sensor_id;sensor_type;location;lat;lon;timestamp;P1;durP1;ratioP1;P2;durP2;ratioP2
69047;SDS011;56119;50.118;8.642;2023-03-13T00:01:22;21.13;;;3.80;;
69047;SDS011;56119;50.118;8.642;2023-03-13T00:03:48;17.90;;;3.88;;
69047;SDS011;56119;50.118;8.642;2023-03-13T00:06:14;19.42;;;3.40;;
69047;SDS011;56119;50.118;8.642;2023-03-13T00:08:41;10.75;;;3.58;;
69047;SDS011;56119;50.118;8.642;2023-03-13T00:11:09;18.13;;;3.67;;
69047;SDS011;56119;50.118;8.642;2023-03-13T00:13:35;11.43;;;3.47;;
69047;SDS011;56119;50.118;8.642;2023-03-13T00:16:01;20.33;;;4.07;;
69047;SDS011;56119;50.118;8.642;2023-03-13T00:18:28;13.38;;;4.10;;
69047;SDS011;56119;50.118;8.642;2023-03-13T00:21:00;17.73;;;4.00;;
69047;SDS011;56119;50.118;8.642;2023-03-13T00:23:26;19.10;;;5.07;;
69047;SDS011;56119;50.118;8.642;2023-03-13T00:25:56;13.68;;;3.35;;
69047;SDS011;56119;50.118;8.642;2023-03-13T00:28:22;13.73;;;3.42;;
69047;SDS011;56119;50.118;8.642;2023-03-13T00:30:48;20.80;;;4.18;;
69047;SDS011;56119;50.118;8.642;2023-03-13T00:33:14;13.15;;;3.20;;
69047;SDS011;56119;50.118;8.642;2023-03-13T00:35:40;16.65;;;3.97;;
69047;SDS011;56119;50.118;8.642;2023-03-13T00:38:06;17.15;;;3.50;;
69047;SDS011;56119;50.118;8.642;2023-03-13T00:40:32;20.15;;;4.03;;
69047;SDS011;56119;50.118;8.642;2023-03-13T00:42:58;19.05;;;3.78;;
69047;SDS011;56119;50.118;8.642;2023-03-13T00:45:24;14.93;;;3.88;;
69047;SDS011;56119;50.118;8.642;2023-03-13T00:47:50;20.98;;;3.83;;
69047;SDS011;56119;50.118;8.642;2023-03-13T00:50:16;15.88;;;4.28;;
69047;SDS011;56119;50.118;8.642;2023-03-13T00:52:43;16.38;;;4.15;;
69047;SDS011;56119;50.118;8.642;2023-03-13T00:55:09;13.55;;;3.25;;
69047;SDS011;56119;50.118;8.642;2023-03-13T00:57:35;18.42;;;4.50;;
69047;SDS011;56119;50.118;8.642;2023-03-13T01:00:02;16.73;;;3.47;;
69047;SDS011;56119;50.118;8.642;2023-03-13T01:02:30;16.98;;;4.03;;
69047;SDS011;56119;50.118;8.642;2023-03-13T01:04:56;16.40;;;4.20;;
69047;SDS011;56119;50.118;8.642;2023-03-13T01:07:21;17.13;;;3.88;;
69047;SDS011;56119;50.118;8.642;2023-03-13T01:09:47;14.15;;;3.35;;
69047;SDS011;56119;50.118;8.642;2023-03-13T01:12:13;14.85;;;3.42;;
69047;SDS011;56119;50.118;8.642;2023-03-13T01:14:39;11.32;;;3.28;;
69047;SDS011;56119;50.118;8.642;2023-03-13T01:17:05;14.50;;;3.88;;
69047;SDS011;56119;50.118;8.642;2023-03-13T01:19:31;18.70;;;3.53;;
69047;SDS011;56119;50.118;8.642;2023-03-13T01:21:57;15.35;;;4.10;;
69047;SDS011;56119;50.118;8.642;2023-03-13T01:24:23;17.48;;;3.35;;
69047;SDS011;56119;50.118;8.642;2023-03-13T01:26:49;15.38;;;3.55;;
69047;SDS011;56119;50.118;8.642;2023-03-13T01:29:16;16.33;;;4.28;;
69047;SDS011;56119;50.118;8.642;2023-03-13T01:31:42;15.98;;;4.05;;
69047;SDS011;56119;50.118;8.642;2023-03-13T01:34:09;14.20;;;3.92;;
69047;SDS011;56119;50.118;8.642;2023-03-13T01:36:35;15.50;;;3.30;;
69047;SDS011;56119;50.118;8.642;2023-03-13T01:39:02;12.20;;;3.40;;
69047;SDS011;56119;50.118;8.642;2023-03-13T01:41:29;10.55;;;3.63;;
69047;SDS011;56119;50.118;8.642;2023-03-13T01:43:55;15.18;;;3.50;;
69047;SDS011;56119;50.118;8.642;2023-03-13T01:46:22;15.68;;;3.03;;
69047;SDS011;56119;50.118;8.642;2023-03-13T01:53:58;18.92;;;3.92;;
69047;SDS011;56119;50.118;8.642;2023-03-13T01:56:27;14.57;;;2.95;;
69047;SDS011;56119;50.118;8.642;2023-03-13T01:58:54;12.98;;;3.47;;
69047;SDS011;56119;50.118;8.642;2023-03-13T02:01:21;13.93;;;3.03;;
69047;SDS011;56119;50.118;8.642;2023-03-13T02:03:47;9.77;;;2.85;;
69047;SDS011;56119;50.118;8.642;2023-03-13T02:06:14;11.13;;;3.22;;
69047;SDS011;56119;50.118;8.642;2023-03-13T02:08:42;12.57;;;3.13;;
69047;SDS011;56119;50.118;8.642;2023-03-13T02:11:12;11.48;;;2.75;;
69047;SDS011;56119;50.118;8.642;2023-03-13T02:13:41;13.63;;;3.42;;
69047;SDS011;56119;50.118;8.642;2023-03-13T02:16:07;13.57;;;2.88;;
69047;SDS011;56119;50.118;8.642;2023-03-13T02:18:34;11.75;;;2.80;;
69047;SDS011;56119;50.118;8.642;2023-03-13T02:21:06;11.45;;;3.40;;
69047;SDS011;56119;50.118;8.642;2023-03-13T02:23:34;12.73;;;2.90;;
69047;SDS011;56119;50.118;8.642;2023-03-13T02:26:04;13.23;;;2.92;;
69047;SDS011;56119;50.118;8.642;2023-03-13T02:28:31;13.07;;;3.05;;
69047;SDS011;56119;50.118;8.642;2023-03-13T02:30:58;12.38;;;2.90;;
69047;SDS011;56119;50.118;8.642;2023-03-13T02:33:31;10.75;;;3.00;;
69047;SDS011;56119;50.118;8.642;2023-03-13T02:35:59;16.77;;;3.10;;
69047;SDS011;56119;50.118;8.642;2023-03-13T02:38:26;11.65;;;2.80;;
69047;SDS011;56119;50.118;8.642;2023-03-13T02:40:53;14.45;;;2.90;;
69047;SDS011;56119;50.118;8.642;2023-03-13T02:43:31;13.25;;;3.25;;
69047;SDS011;56119;50.118;8.642;2023-03-13T02:48:36;13.02;;;3.13;;
69047;SDS011;56119;50.118;8.642;2023-03-13T02:51:04;10.60;;;3.30;;
69047;SDS011;56119;50.118;8.642;2023-03-13T02:53:30;14.65;;;4.07;;
69047;SDS011;56119;50.118;8.642;2023-03-13T02:55:57;15.70;;;3.38;;
69047;SDS011;56119;50.118;8.642;2023-03-13T02:58:23;14.93;;;3.10;;
69047;SDS011;56119;50.118;8.642;2023-03-13T03:00:50;14.55;;;3.25;;
69047;SDS011;56119;50.118;8.642;2023-03-13T03:03:16;12.80;;;3.38;;
69047;SDS011;56119;50.118;8.642;2023-03-13T03:05:42;12.43;;;2.70;;
69047;SDS011;56119;50.118;8.642;2023-03-13T03:08:08;13.50;;;3.42;;
69047;SDS011;56119;50.118;8.642;2023-03-13T03:10:35;12.15;;;2.90;;
69047;SDS011;56119;50.118;8.642;2023-03-13T03:13:01;13.55;;;3.22;;
69047;SDS011;56119;50.118;8.642;2023-03-13T03:15:27;11.98;;;3.38;;
69047;SDS011;56119;50.118;8.642;2023-03-13T03:17:53;11.88;;;3.20;;
69047;SDS011;56119;50.118;8.642;2023-03-13T03:20:19;10.80;;;2.80;;
69047;SDS011;56119;50.118;8.642;2023-03-13T03:22:45;14.05;;;2.63;;
69047;SDS011;56119;50.118;8.642;2023-03-13T03:25:11;9.45;;;2.70;;
69047;SDS011;56119;50.118;8.642;2023-03-13T03:27:37;12.13;;;2.60;;
69047;SDS011;56119;50.118;8.642;2023-03-13T03:30:04;10.07;;;3.30;;
69047;SDS011;56119;50.118;8.642;2023-03-13T03:32:30;14.30;;;3.00;;
69047;SDS011;56119;50.118;8.642;2023-03-13T03:34:56;12.18;;;3.10;;
69047;SDS011;56119;50.118;8.642;2023-03-13T03:37:22;12.93;;;3.25;;
69047;SDS011;56119;50.118;8.642;2023-03-13T03:39:48;13.18;;;3.78;;
69047;SDS011;56119;50.118;8.642;2023-03-13T03:42:14;11.10;;;3.05;;
69047;SDS011;56119;50.118;8.642;2023-03-13T03:44:40;12.00;;;3.67;;
69047;SDS011;56119;50.118;8.642;2023-03-13T03:47:06;14.88;;;3.55;;
69047;SDS011;56119;50.118;8.642;2023-03-13T03:49:32;8.38;;;2.50;;
69047;SDS011;56119;50.118;8.642;2023-03-13T03:51:58;13.20;;;3.03;;
69047;SDS011;56119;50.118;8.642;2023-03-13T03:54:24;12.25;;;2.63;;
69047;SDS011;56119;50.118;8.642;2023-03-13T03:56:50;12.85;;;2.88;;
69047;SDS011;56119;50.118;8.642;2023-03-13T03:59:16;11.25;;;3.22;;
69047;SDS011;56119;50.118;8.642;2023-03-13T04:01:42;10.63;;;3.10;;
69047;SDS011;56119;50.118;8.642;2023-03-13T04:04:08;12.85;;;3.13;;
69047;SDS011;56119;50.118;8.642;2023-03-13T04:06:34;7.80;;;2.90;;
69047;SDS011;56119;50.118;8.642;2023-03-13T04:09:00;13.23;;;3.50;;
69047;SDS011;56119;50.118;8.642;2023-03-13T04:11:26;12.60;;;3.05;;
69047;SDS011;56119;50.118;8.642;2023-03-13T04:13:52;9.88;;;3.28;;
69047;SDS011;56119;50.118;8.642;2023-03-13T04:16:18;10.88;;;3.00;;
69047;SDS011;56119;50.118;8.642;2023-03-13T04:18:44;13.30;;;2.95;;
69047;SDS011;56119;50.118;8.642;2023-03-13T04:21:10;9.02;;;3.38;;
69047;SDS011;56119;50.118;8.642;2023-03-13T04:23:36;13.52;;;3.45;;
69047;SDS011;56119;50.118;8.642;2023-03-13T04:26:02;13.65;;;3.30;;
69047;SDS011;56119;50.118;8.642;2023-03-13T04:28:28;16.33;;;3.40;;
69047;SDS011;56119;50.118;8.642;2023-03-13T04:30:54;14.30;;;2.83;;
69047;SDS011;56119;50.118;8.642;2023-03-13T04:33:21;13.57;;;2.80;;
69047;SDS011;56119;50.118;8.642;2023-03-13T04:35:47;13.68;;;3.55;;
69047;SDS011;56119;50.118;8.642;2023-03-13T04:38:13;15.27;;;3.13;;
69047;SDS011;56119;50.118;8.642;2023-03-13T04:40:39;13.20;;;3.28;;
69047;SDS011;56119;50.118;8.642;2023-03-13T04:43:07;7.18;;;2.53;;
69047;SDS011;56119;50.118;8.642;2023-03-13T04:45:33;16.98;;;3.38;;
69047;SDS011;56119;50.118;8.642;2023-03-13T04:47:59;11.13;;;2.67;;
69047;SDS011;56119;50.118;8.642;2023-03-13T04:50:25;13.60;;;3.97;;
69047;SDS011;56119;50.118;8.642;2023-03-13T04:52:51;7.50;;;2.55;;
69047;SDS011;56119;50.118;8.642;2023-03-13T04:55:17;12.88;;;3.28;;
69047;SDS011;56119;50.118;8.642;2023-03-13T04:57:43;15.77;;;3.33;;
69047;SDS011;56119;50.118;8.642;2023-03-13T05:00:09;10.52;;;2.92;;
69047;SDS011;56119;50.118;8.642;2023-03-13T05:02:35;8.35;;;2.83;;
69047;SDS011;56119;50.118;8.642;2023-03-13T05:05:01;8.65;;;3.00;;
69047;SDS011;56119;50.118;8.642;2023-03-13T05:07:27;7.00;;;2.40;;
69047;SDS011;56119;50.118;8.642;2023-03-13T05:09:53;6.78;;;2.53;;
69047;SDS011;56119;50.118;8.642;2023-03-13T05:12:19;7.68;;;2.40;;
69047;SDS011;56119;50.118;8.642;2023-03-13T05:14:45;9.35;;;2.08;;
69047;SDS011;56119;50.118;8.642;2023-03-13T05:17:11;6.55;;;2.20;;
69047;SDS011;56119;50.118;8.642;2023-03-13T05:19:37;9.98;;;2.75;;
69047;SDS011;56119;50.118;8.642;2023-03-13T05:22:03;7.95;;;2.28;;
69047;SDS011;56119;50.118;8.642;2023-03-13T05:24:29;9.60;;;2.53;;
69047;SDS011;56119;50.118;8.642;2023-03-13T05:26:55;10.75;;;2.28;;
69047;SDS011;56119;50.118;8.642;2023-03-13T05:29:21;7.50;;;2.50;;
69047;SDS011;56119;50.118;8.642;2023-03-13T05:31:47;7.47;;;2.33;;
69047;SDS011;56119;50.118;8.642;2023-03-13T05:34:13;4.60;;;2.10;;
69047;SDS011;56119;50.118;8.642;2023-03-13T05:36:39;5.80;;;2.20;;
69047;SDS011;56119;50.118;8.642;2023-03-13T05:39:05;3.42;;;1.90;;
69047;SDS011;56119;50.118;8.642;2023-03-13T05:41:31;6.00;;;2.40;;
69047;SDS011;56119;50.118;8.642;2023-03-13T05:43:57;9.50;;;2.17;;
69047;SDS011;56119;50.118;8.642;2023-03-13T05:46:23;9.38;;;2.30;;
69047;SDS011;56119;50.118;8.642;2023-03-13T05:48:49;6.45;;;2.28;;
69047;SDS011;56119;50.118;8.642;2023-03-13T05:51:16;9.23;;;2.53;;
69047;SDS011;56119;50.118;8.642;2023-03-13T05:53:42;5.40;;;2.45;;
69047;SDS011;56119;50.118;8.642;2023-03-13T05:56:08;7.05;;;2.35;;
69047;SDS011;56119;50.118;8.642;2023-03-13T05:58:34;6.40;;;2.30;;
69047;SDS011;56119;50.118;8.642;2023-03-13T06:01:07;5.22;;;2.13;;
69047;SDS011;56119;50.118;8.642;2023-03-13T06:03:33;5.20;;;2.60;;
69047;SDS011;56119;50.118;8.642;2023-03-13T06:05:59;6.97;;;2.42;;
69047;SDS011;56119;50.118;8.642;2023-03-13T06:08:25;5.45;;;2.78;;
69047;SDS011;56119;50.118;8.642;2023-03-13T06:10:52;7.35;;;2.85;;
69047;SDS011;56119;50.118;8.642;2023-03-13T06:13:18;8.93;;;2.95;;
69047;SDS011;56119;50.118;8.642;2023-03-13T06:15:51;7.43;;;2.53;;
69047;SDS011;56119;50.118;8.642;2023-03-13T06:18:17;6.05;;;2.10;;
69047;SDS011;56119;50.118;8.642;2023-03-13T06:20:43;6.53;;;2.35;;
69047;SDS011;56119;50.118;8.642;2023-03-13T06:23:09;5.88;;;2.15;;
69047;SDS011;56119;50.118;8.642;2023-03-13T06:25:35;7.00;;;2.42;;
69047;SDS011;56119;50.118;8.642;2023-03-13T06:28:01;8.38;;;2.38;;
69047;SDS011;56119;50.118;8.642;2023-03-13T06:30:27;6.10;;;2.58;;
69047;SDS011;56119;50.118;8.642;2023-03-13T06:32:53;4.80;;;2.30;;
69047;SDS011;56119;50.118;8.642;2023-03-13T06:35:19;6.68;;;2.78;;
69047;SDS011;56119;50.118;8.642;2023-03-13T06:37:45;6.68;;;2.38;;
69047;SDS011;56119;50.118;8.642;2023-03-13T06:40:11;7.22;;;2.45;;
69047;SDS011;56119;50.118;8.642;2023-03-13T06:42:37;3.03;;;2.00;;
69047;SDS011;56119;50.118;8.642;2023-03-13T06:45:03;5.05;;;2.13;;
69047;SDS011;56119;50.118;8.642;2023-03-13T06:47:32;6.07;;;2.65;;
69047;SDS011;56119;50.118;8.642;2023-03-13T06:49:58;5.60;;;2.35;;
69047;SDS011;56119;50.118;8.642;2023-03-13T06:52:24;5.57;;;1.90;;
69047;SDS011;56119;50.118;8.642;2023-03-13T06:54:50;4.25;;;2.15;;
69047;SDS011;56119;50.118;8.642;2023-03-13T06:57:16;4.50;;;2.00;;
69047;SDS011;56119;50.118;8.642;2023-03-13T06:59:42;3.97;;;2.00;;
69047;SDS011;56119;50.118;8.642;2023-03-13T07:02:11;3.63;;;2.10;;
69047;SDS011;56119;50.118;8.642;2023-03-13T07:04:37;3.55;;;2.17;;
69047;SDS011;56119;50.118;8.642;2023-03-13T07:07:03;4.22;;;2.50;;
69047;SDS011;56119;50.118;8.642;2023-03-13T07:09:29;4.80;;;2.20;;
69047;SDS011;56119;50.118;8.642;2023-03-13T07:11:55;3.40;;;1.92;;
69047;SDS011;56119;50.118;8.642;2023-03-13T07:14:22;4.38;;;2.05;;
69047;SDS011;56119;50.118;8.642;2023-03-13T07:16:48;5.93;;;1.70;;
69047;SDS011;56119;50.118;8.642;2023-03-13T07:19:14;6.40;;;1.70;;
69047;SDS011;56119;50.118;8.642;2023-03-13T07:21:41;2.85;;;1.67;;
69047;SDS011;56119;50.118;8.642;2023-03-13T07:24:08;4.72;;;1.58;;
69047;SDS011;56119;50.118;8.642;2023-03-13T07:26:34;3.92;;;1.85;;
69047;SDS011;56119;50.118;8.642;2023-03-13T07:29:00;1.95;;;1.40;;
69047;SDS011;56119;50.118;8.642;2023-03-13T07:31:26;3.35;;;1.65;;
69047;SDS011;56119;50.118;8.642;2023-03-13T07:33:53;2.13;;;1.63;;
69047;SDS011;56119;50.118;8.642;2023-03-13T07:36:23;2.85;;;1.65;;
69047;SDS011;56119;50.118;8.642;2023-03-13T07:38:49;3.30;;;1.60;;
69047;SDS011;56119;50.118;8.642;2023-03-13T07:41:15;2.22;;;1.42;;
69047;SDS011;56119;50.118;8.642;2023-03-13T07:43:41;2.67;;;1.75;;
69047;SDS011;56119;50.118;8.642;2023-03-13T07:46:08;2.75;;;1.70;;
69047;SDS011;56119;50.118;8.642;2023-03-13T07:48:36;4.85;;;1.80;;
69047;SDS011;56119;50.118;8.642;2023-03-13T07:51:03;2.95;;;1.60;;
69047;SDS011;56119;50.118;8.642;2023-03-13T07:53:29;2.95;;;1.77;;
69047;SDS011;56119;50.118;8.642;2023-03-13T07:55:57;3.40;;;1.73;;
69047;SDS011;56119;50.118;8.642;2023-03-13T07:58:23;2.20;;;1.52;;
69047;SDS011;56119;50.118;8.642;2023-03-13T08:00:50;2.67;;;1.80;;
69047;SDS011;56119;50.118;8.642;2023-03-13T08:03:16;9.18;;;2.13;;
69047;SDS011;56119;50.118;8.642;2023-03-13T08:05:42;2.88;;;1.40;;
69047;SDS011;56119;50.118;8.642;2023-03-13T08:08:08;3.75;;;1.67;;
69047;SDS011;56119;50.118;8.642;2023-03-13T08:10:34;2.28;;;1.67;;
69047;SDS011;56119;50.118;8.642;2023-03-13T08:13:00;1.80;;;1.67;;
69047;SDS011;56119;50.118;8.642;2023-03-13T08:15:26;2.83;;;1.83;;
69047;SDS011;56119;50.118;8.642;2023-03-13T08:17:52;3.05;;;1.80;;
69047;SDS011;56119;50.118;8.642;2023-03-13T08:20:18;3.50;;;2.20;;
69047;SDS011;56119;50.118;8.642;2023-03-13T08:22:44;3.35;;;2.42;;
69047;SDS011;56119;50.118;8.642;2023-03-13T08:25:13;2.28;;;2.08;;
69047;SDS011;56119;50.118;8.642;2023-03-13T08:27:40;4.63;;;2.38;;
69047;SDS011;56119;50.118;8.642;2023-03-13T08:30:06;2.33;;;2.00;;
69047;SDS011;56119;50.118;8.642;2023-03-13T08:32:33;4.13;;;2.30;;
69047;SDS011;56119;50.118;8.642;2023-03-13T08:34:58;4.22;;;2.50;;
69047;SDS011;56119;50.118;8.642;2023-03-13T08:37:24;3.80;;;2.58;;
69047;SDS011;56119;50.118;8.642;2023-03-13T08:39:50;4.80;;;2.40;;
69047;SDS011;56119;50.118;8.642;2023-03-13T08:42:20;5.20;;;2.80;;
69047;SDS011;56119;50.118;8.642;2023-03-13T08:44:46;3.55;;;2.20;;
69047;SDS011;56119;50.118;8.642;2023-03-13T08:47:12;4.65;;;1.88;;
69047;SDS011;56119;50.118;8.642;2023-03-13T08:49:38;3.85;;;2.20;;
69047;SDS011;56119;50.118;8.642;2023-03-13T08:52:04;2.60;;;2.03;;
69047;SDS011;56119;50.118;8.642;2023-03-13T08:54:30;3.92;;;2.30;;
69047;SDS011;56119;50.118;8.642;2023-03-13T08:56:56;4.13;;;2.72;;
69047;SDS011;56119;50.118;8.642;2023-03-13T08:59:23;3.95;;;2.63;;
69047;SDS011;56119;50.118;8.642;2023-03-13T09:01:49;3.88;;;2.88;;
69047;SDS011;56119;50.118;8.642;2023-03-13T09:04:15;4.18;;;2.72;;
69047;SDS011;56119;50.118;8.642;2023-03-13T09:06:42;7.30;;;2.80;;
69047;SDS011;56119;50.118;8.642;2023-03-13T09:09:08;3.58;;;2.58;;
69047;SDS011;56119;50.118;8.642;2023-03-13T09:11:35;3.75;;;2.13;;
69047;SDS011;56119;50.118;8.642;2023-03-13T09:14:01;4.50;;;2.88;;
69047;SDS011;56119;50.118;8.642;2023-03-13T09:16:28;3.30;;;2.30;;
69047;SDS011;56119;50.118;8.642;2023-03-13T09:18:54;3.47;;;2.60;;
69047;SDS011;56119;50.118;8.642;2023-03-13T09:21:23;3.15;;;2.00;;
69047;SDS011;56119;50.118;8.642;2023-03-13T09:23:50;3.83;;;2.50;;
69047;SDS011;56119;50.118;8.642;2023-03-13T09:26:16;4.82;;;2.70;;
69047;SDS011;56119;50.118;8.642;2023-03-13T09:28:42;4.00;;;2.75;;
69047;SDS011;56119;50.118;8.642;2023-03-13T09:31:09;3.35;;;2.25;;
69047;SDS011;56119;50.118;8.642;2023-03-13T09:33:35;5.03;;;2.70;;
69047;SDS011;56119;50.118;8.642;2023-03-13T09:36:02;2.60;;;2.40;;
69047;SDS011;56119;50.118;8.642;2023-03-13T09:38:28;3.05;;;1.88;;
69047;SDS011;56119;50.118;8.642;2023-03-13T09:40:54;2.72;;;2.17;;
69047;SDS011;56119;50.118;8.642;2023-03-13T09:43:24;4.18;;;2.03;;
69047;SDS011;56119;50.118;8.642;2023-03-13T09:45:56;3.92;;;2.53;;
69047;SDS011;56119;50.118;8.642;2023-03-13T09:48:36;2.63;;;2.13;;
69047;SDS011;56119;50.118;8.642;2023-03-13T09:53:42;3.60;;;2.53;;
69047;SDS011;56119;50.118;8.642;2023-03-13T09:56:15;4.40;;;2.40;;
69047;SDS011;56119;50.118;8.642;2023-03-13T09:58:43;2.30;;;2.10;;
69047;SDS011;56119;50.118;8.642;2023-03-13T10:01:12;3.05;;;2.13;;
69047;SDS011;56119;50.118;8.642;2023-03-13T10:03:47;4.57;;;2.67;;
69047;SDS011;56119;50.118;8.642;2023-03-13T10:06:18;4.15;;;2.70;;
69047;SDS011;56119;50.118;8.642;2023-03-13T10:08:45;3.08;;;2.30;;
69047;SDS011;56119;50.118;8.642;2023-03-13T10:13:47;4.63;;;2.50;;
69047;SDS011;56119;50.118;8.642;2023-03-13T10:16:15;5.18;;;2.60;;
69047;SDS011;56119;50.118;8.642;2023-03-13T10:18:43;5.97;;;2.80;;
69047;SDS011;56119;50.118;8.642;2023-03-13T10:21:16;4.63;;;3.25;;
69047;SDS011;56119;50.118;8.642;2023-03-13T10:23:51;3.58;;;2.70;;
69047;SDS011;56119;50.118;8.642;2023-03-13T10:26:20;4.80;;;2.53;;
69047;SDS011;56119;50.118;8.642;2023-03-13T10:28:49;6.07;;;3.05;;
69047;SDS011;56119;50.118;8.642;2023-03-13T10:31:30;2.72;;;2.40;;
69047;SDS011;56119;50.118;8.642;2023-03-13T10:34:06;3.28;;;2.60;;
69047;SDS011;56119;50.118;8.642;2023-03-13T10:36:40;5.05;;;2.83;;
69047;SDS011;56119;50.118;8.642;2023-03-13T10:39:07;4.93;;;2.92;;
69047;SDS011;56119;50.118;8.642;2023-03-13T10:41:34;5.18;;;2.95;;
69047;SDS011;56119;50.118;8.642;2023-03-13T10:44:03;3.88;;;2.53;;
69047;SDS011;56119;50.118;8.642;2023-03-13T10:46:31;4.60;;;2.72;;
69047;SDS011;56119;50.118;8.642;2023-03-13T10:49:01;5.25;;;2.85;;
69047;SDS011;56119;50.118;8.642;2023-03-13T10:51:36;4.10;;;2.60;;
69047;SDS011;56119;50.118;8.642;2023-03-13T10:54:24;3.00;;;2.67;;
69047;SDS011;56119;50.118;8.642;2023-03-13T10:56:51;3.92;;;2.42;;
69047;SDS011;56119;50.118;8.642;2023-03-13T10:59:31;3.70;;;2.70;;
69047;SDS011;56119;50.118;8.642;2023-03-13T11:01:59;6.15;;;2.95;;
69047;SDS011;56119;50.118;8.642;2023-03-13T11:04:30;4.75;;;2.15;;
69047;SDS011;56119;50.118;8.642;2023-03-13T11:06:58;4.18;;;2.60;;
69047;SDS011;56119;50.118;8.642;2023-03-13T11:09:26;4.85;;;2.55;;
69047;SDS011;56119;50.118;8.642;2023-03-13T11:11:52;5.15;;;2.90;;
69047;SDS011;56119;50.118;8.642;2023-03-13T11:14:23;4.18;;;3.00;;
69047;SDS011;56119;50.118;8.642;2023-03-13T11:16:50;4.97;;;2.50;;
69047;SDS011;56119;50.118;8.642;2023-03-13T11:22:04;4.10;;;3.08;;
69047;SDS011;56119;50.118;8.642;2023-03-13T11:27:20;4.82;;;2.88;;
69047;SDS011;56119;50.118;8.642;2023-03-13T11:32:22;6.55;;;2.97;;
69047;SDS011;56119;50.118;8.642;2023-03-13T11:34:50;5.88;;;2.60;;
69047;SDS011;56119;50.118;8.642;2023-03-13T11:37:17;4.55;;;2.80;;
69047;SDS011;56119;50.118;8.642;2023-03-13T11:47:29;4.53;;;2.10;;
69047;SDS011;56119;50.118;8.642;2023-03-13T11:55:35;7.05;;;2.63;;
69047;SDS011;56119;50.118;8.642;2023-03-13T12:00:39;5.65;;;2.55;;
69047;SDS011;56119;50.118;8.642;2023-03-13T12:03:29;3.78;;;1.95;;
69047;SDS011;56119;50.118;8.642;2023-03-13T12:05:59;2.97;;;2.05;;
69047;SDS011;56119;50.118;8.642;2023-03-13T12:08:38;7.13;;;2.50;;
69047;SDS011;56119;50.118;8.642;2023-03-13T12:11:14;3.22;;;2.00;;
69047;SDS011;56119;50.118;8.642;2023-03-13T12:13:42;4.00;;;2.03;;
69047;SDS011;56119;50.118;8.642;2023-03-13T12:16:18;4.93;;;1.85;;
69047;SDS011;56119;50.118;8.642;2023-03-13T12:18:45;5.10;;;2.15;;
69047;SDS011;56119;50.118;8.642;2023-03-13T12:26:15;5.47;;;2.33;;
69047;SDS011;56119;50.118;8.642;2023-03-13T12:36:40;3.95;;;2.10;;
69047;SDS011;56119;50.118;8.642;2023-03-13T12:41:56;4.07;;;2.53;;
69047;SDS011;56119;50.118;8.642;2023-03-13T12:44:25;4.18;;;2.10;;
69047;SDS011;56119;50.118;8.642;2023-03-13T12:49:55;3.88;;;2.00;;
69047;SDS011;56119;50.118;8.642;2023-03-13T12:55:03;3.88;;;2.63;;
69047;SDS011;56119;50.118;8.642;2023-03-13T13:00:30;6.63;;;3.10;;
69047;SDS011;56119;50.118;8.642;2023-03-13T13:08:26;5.53;;;3.13;;
69047;SDS011;56119;50.118;8.642;2023-03-13T13:11:30;5.50;;;2.85;;
69047;SDS011;56119;50.118;8.642;2023-03-13T13:13:41;5.47;;;3.28;;
69047;SDS011;56119;50.118;8.642;2023-03-13T13:16:10;7.63;;;3.35;;
69047;SDS011;56119;50.118;8.642;2023-03-13T13:18:40;4.43;;;2.95;;
69047;SDS011;56119;50.118;8.642;2023-03-13T13:23:41;4.93;;;2.80;;
69047;SDS011;56119;50.118;8.642;2023-03-13T13:37:28;4.78;;;2.80;;
69047;SDS011;56119;50.118;8.642;2023-03-13T13:39:48;4.20;;;2.92;;
69047;SDS011;56119;50.118;8.642;2023-03-13T13:47:23;4.68;;;2.72;;
69047;SDS011;56119;50.118;8.642;2023-03-13T13:49:50;6.47;;;3.65;;
69047;SDS011;56119;50.118;8.642;2023-03-13T13:52:26;3.72;;;2.83;;
69047;SDS011;56119;50.118;8.642;2023-03-13T13:54:55;6.20;;;3.15;;
69047;SDS011;56119;50.118;8.642;2023-03-13T13:57:26;7.47;;;3.53;;
69047;SDS011;56119;50.118;8.642;2023-03-13T14:02:34;4.28;;;2.85;;
69047;SDS011;56119;50.118;8.642;2023-03-13T14:05:05;5.28;;;2.78;;
69047;SDS011;56119;50.118;8.642;2023-03-13T14:10:02;6.05;;;2.90;;
69047;SDS011;56119;50.118;8.642;2023-03-13T14:12:30;6.75;;;3.17;;
69047;SDS011;56119;50.118;8.642;2023-03-13T14:15:14;5.75;;;3.25;;
69047;SDS011;56119;50.118;8.642;2023-03-13T14:17:43;5.10;;;3.65;;
69047;SDS011;56119;50.118;8.642;2023-03-13T14:20:26;6.68;;;3.40;;
69047;SDS011;56119;50.118;8.642;2023-03-13T14:22:53;5.60;;;3.63;;
69047;SDS011;56119;50.118;8.642;2023-03-13T14:25:20;5.47;;;3.70;;
69047;SDS011;56119;50.118;8.642;2023-03-13T14:27:48;8.52;;;4.50;;
69047;SDS011;56119;50.118;8.642;2023-03-13T14:30:15;6.35;;;3.83;;
69047;SDS011;56119;50.118;8.642;2023-03-13T14:32:41;9.98;;;5.00;;
69047;SDS011;56119;50.118;8.642;2023-03-13T14:35:08;11.68;;;5.25;;
69047;SDS011;56119;50.118;8.642;2023-03-13T14:40:04;8.85;;;4.32;;
69047;SDS011;56119;50.118;8.642;2023-03-13T14:42:37;9.75;;;4.40;;
69047;SDS011;56119;50.118;8.642;2023-03-13T14:45:11;5.88;;;3.20;;
69047;SDS011;56119;50.118;8.642;2023-03-13T14:47:37;9.15;;;4.07;;
69047;SDS011;56119;50.118;8.642;2023-03-13T14:50:04;6.93;;;3.70;;
69047;SDS011;56119;50.118;8.642;2023-03-13T14:52:34;9.25;;;4.80;;
69047;SDS011;56119;50.118;8.642;2023-03-13T14:55:05;8.05;;;4.15;;
69047;SDS011;56119;50.118;8.642;2023-03-13T14:57:33;7.57;;;4.38;;
69047;SDS011;56119;50.118;8.642;2023-03-13T15:03:19;7.65;;;3.85;;
69047;SDS011;56119;50.118;8.642;2023-03-13T15:08:15;9.10;;;5.00;;
69047;SDS011;56119;50.118;8.642;2023-03-13T15:10:42;9.68;;;4.82;;
69047;SDS011;56119;50.118;8.642;2023-03-13T15:15:39;13.40;;;4.68;;
69047;SDS011;56119;50.118;8.642;2023-03-13T15:18:11;11.70;;;3.58;;
69047;SDS011;56119;50.118;8.642;2023-03-13T15:20:40;14.20;;;4.45;;
69047;SDS011;56119;50.118;8.642;2023-03-13T15:23:08;9.05;;;3.92;;
69047;SDS011;56119;50.118;8.642;2023-03-13T15:25:35;18.38;;;7.20;;
69047;SDS011;56119;50.118;8.642;2023-03-13T15:28:04;8.85;;;3.50;;
69047;SDS011;56119;50.118;8.642;2023-03-13T15:30:30;14.30;;;4.80;;
69047;SDS011;56119;50.118;8.642;2023-03-13T15:32:56;9.98;;;2.92;;
69047;SDS011;56119;50.118;8.642;2023-03-13T15:35:30;19.58;;;5.60;;
69047;SDS011;56119;50.118;8.642;2023-03-13T15:37:57;9.25;;;4.43;;
69047;SDS011;56119;50.118;8.642;2023-03-13T15:40:23;10.73;;;4.47;;
69047;SDS011;56119;50.118;8.642;2023-03-13T15:42:51;11.93;;;5.18;;
69047;SDS011;56119;50.118;8.642;2023-03-13T15:45:17;14.18;;;6.03;;
69047;SDS011;56119;50.118;8.642;2023-03-13T15:47:43;15.63;;;7.13;;
69047;SDS011;56119;50.118;8.642;2023-03-13T15:56:26;13.75;;;6.38;;
69047;SDS011;56119;50.118;8.642;2023-03-13T15:58:54;13.88;;;6.70;;
69047;SDS011;56119;50.118;8.642;2023-03-13T16:04:28;15.32;;;7.13;;
69047;SDS011;56119;50.118;8.642;2023-03-13T16:06:59;15.05;;;7.53;;
69047;SDS011;56119;50.118;8.642;2023-03-13T16:09:25;19.85;;;8.05;;
69047;SDS011;56119;50.118;8.642;2023-03-13T16:11:51;15.95;;;6.97;;
69047;SDS011;56119;50.118;8.642;2023-03-13T16:14:17;21.60;;;8.68;;
69047;SDS011;56119;50.118;8.642;2023-03-13T16:16:43;19.02;;;8.80;;
69047;SDS011;56119;50.118;8.642;2023-03-13T16:19:09;22.10;;;8.32;;
69047;SDS011;56119;50.118;8.642;2023-03-13T16:21:35;18.42;;;8.13;;
69047;SDS011;56119;50.118;8.642;2023-03-13T16:24:04;17.60;;;7.95;;
69047;SDS011;56119;50.118;8.642;2023-03-13T16:26:30;15.57;;;7.88;;
69047;SDS011;56119;50.118;8.642;2023-03-13T16:28:56;16.35;;;7.18;;
69047;SDS011;56119;50.118;8.642;2023-03-13T16:31:23;17.55;;;7.32;;
69047;SDS011;56119;50.118;8.642;2023-03-13T16:33:51;15.55;;;7.90;;
69047;SDS011;56119;50.118;8.642;2023-03-13T16:36:19;16.00;;;6.97;;